Time;durP1;ratioP1;P1;durP2;ratioP2;P2;SDS_P1;SDS_P2;PMS_P1;PMS_P2;Temp;Humidity;BMP_temperature;BMP_pressure;BME280_temperature;BME280_humidity;BME280_pressure;Samples;Min_cycle;Max_cycle;Signal;HPM_P1;HPM_P2
2021/05/13 00:02:05;;;;;;;20.70;8.68;;;10.70;99.90;;;;;;5058930;28;20200;-76
2021/05/13 00:04:31;;;;;;;15.60;8.65;;;10.70;99.90;;;;;;5096218;28;20225;-76
2021/05/13 00:06:57;;;;;;;17.33;9.05;;;10.70;99.90;;;;;;5100769;28;20401;-76
2021/05/13 00:09:22;;;;;;;11.48;7.97;;;10.70;99.90;;;;;;5091846;28;20210;-76
2021/05/13 00:11:51;;;;;;;15.15;8.52;;;10.60;99.90;;;;;;5077114;28;20199;-76
2021/05/13 00:14:17;;;;;;;15.77;8.00;;;10.50;99.90;;;;;;5097348;28;20200;-76
2021/05/13 00:16:43;;;;;;;12.57;8.07;;;10.50;99.90;;;;;;5092681;28;20187;-76
2021/05/13 00:19:11;;;;;;;14.48;7.53;;;10.40;99.90;;;;;;5071041;28;20198;-76
2021/05/13 00:21:39;;;;;;;13.75;9.02;;;10.40;99.90;;;;;;5078374;28;20757;-77
2021/05/13 00:24:06;;;;;;;18.98;9.52;;;10.40;99.90;;;;;;5077443;28;20203;-76
2021/05/13 00:26:39;;;;;;;16.35;9.30;;;10.30;99.90;;;;;;5095493;28;20191;-75
2021/05/13 00:29:10;;;;;;;13.65;9.02;;;10.30;99.90;;;;;;5093167;28;20839;-76
2021/05/13 00:31:36;;;;;;;15.48;9.32;;;10.20;99.90;;;;;;5091554;28;20211;-76
2021/05/13 00:34:03;;;;;;;15.00;9.73;;;10.20;99.90;;;;;;5093442;28;20204;-77
2021/05/13 00:36:30;;;;;;;15.70;9.57;;;10.20;99.90;;;;;;5089991;28;20192;-77
2021/05/13 00:38:57;;;;;;;20.95;10.20;;;10.10;99.90;;;;;;5079383;28;20203;-76
2021/05/13 00:41:23;;;;;;;20.13;11.63;;;10.10;99.90;;;;;;5093602;28;20249;-76
2021/05/13 00:43:49;;;;;;;21.23;10.25;;;10.00;99.90;;;;;;5071495;28;20778;-75
2021/05/13 00:46:15;;;;;;;19.83;9.63;;;9.90;99.90;;;;;;5096494;28;20183;-76
2021/05/13 00:48:43;;;;;;;15.20;10.57;;;9.90;99.90;;;;;;5072615;28;20591;-76
2021/05/13 00:51:09;;;;;;;18.75;10.25;;;9.90;99.90;;;;;;5092608;28;20198;-77
2021/05/13 00:53:34;;;;;;;25.73;10.80;;;9.80;99.90;;;;;;5072230;28;20184;-77
2021/05/13 00:56:01;;;;;;;15.80;9.63;;;9.80;99.90;;;;;;5079153;28;20253;-75
2021/05/13 00:58:31;;;;;;;17.52;9.95;;;9.70;99.90;;;;;;5098483;28;20196;-76
2021/05/13 01:03:22;;;;;;;17.83;9.65;;;9.70;99.90;;;;;;5085344;28;20634;-75
2021/05/13 01:05:48;;;;;;;13.65;9.75;;;9.70;99.90;;;;;;5071515;28;20218;-75
2021/05/13 01:08:13;;;;;;;18.90;9.73;;;9.70;99.90;;;;;;5061453;28;20196;-71
2021/05/13 01:10:40;;;;;;;18.00;10.20;;;9.70;99.90;;;;;;5064068;28;20914;-72
2021/05/13 01:13:10;;;;;;;18.48;10.77;;;9.60;99.90;;;;;;5076407;28;20192;-72
2021/05/13 01:15:39;;;;;;;17.60;9.48;;;9.50;99.90;;;;;;5079817;28;20207;-72
2021/05/13 01:18:20;;;;;;;16.02;9.27;;;9.50;99.90;;;;;;5056348;28;20197;-72
2021/05/13 01:20:48;;;;;;;14.27;9.32;;;9.50;99.90;;;;;;5077166;28;20283;-72
2021/05/13 01:23:14;;;;;;;13.75;10.10;;;9.40;99.90;;;;;;5074758;28;20203;-73
2021/05/13 01:25:50;;;;;;;15.15;10.15;;;9.40;99.90;;;;;;5057340;28;20192;-73
2021/05/13 01:28:16;;;;;;;19.77;10.57;;;9.40;99.90;;;;;;5078323;28;20701;-72
2021/05/13 01:30:47;;;;;;;17.30;11.48;;;9.40;99.90;;;;;;5061716;28;20207;-73
2021/05/13 01:33:14;;;;;;;19.38;9.88;;;9.30;99.90;;;;;;5056869;28;20654;-72
2021/05/13 01:35:40;;;;;;;14.13;9.30;;;9.30;99.90;;;;;;5061265;28;20319;-72
2021/05/13 01:38:14;;;;;;;22.30;11.25;;;9.30;99.90;;;;;;5062295;28;20581;-71
2021/05/13 01:40:49;;;;;;;19.08;11.13;;;9.30;99.90;;;;;;5079941;28;20192;-71
2021/05/13 01:43:15;;;;;;;20.75;11.20;;;9.30;99.90;;;;;;5077670;28;20179;-71
2021/05/13 01:45:41;;;;;;;19.20;11.38;;;9.20;99.90;;;;;;5077123;28;20197;-72
2021/05/13 01:48:07;;;;;;;23.80;11.63;;;9.20;99.90;;;;;;5083237;28;20195;-75
2021/05/13 01:50:34;;;;;;;21.30;10.75;;;9.20;99.90;;;;;;5059534;28;20243;-72
2021/05/13 01:53:06;;;;;;;24.40;12.35;;;9.20;99.90;;;;;;5079927;28;20234;-72
2021/05/13 01:55:32;;;;;;;20.52;10.60;;;9.10;99.90;;;;;;5076005;28;20322;-72
2021/05/13 01:57:58;;;;;;;14.90;9.88;;;9.10;99.90;;;;;;5079302;28;20253;-73
2021/05/13 02:00:24;;;;;;;18.42;9.77;;;9.10;99.90;;;;;;5084200;28;20558;-74
2021/05/13 02:02:50;;;;;;;17.90;10.73;;;9.00;99.90;;;;;;5059126;28;20196;-71
2021/05/13 02:05:18;;;;;;;16.65;9.15;;;9.00;99.90;;;;;;5098860;28;20203;-73
2021/05/13 02:07:44;;;;;;;16.48;9.85;;;9.00;99.90;;;;;;5096675;28;20339;-71
2021/05/13 02:10:11;;;;;;;14.73;9.43;;;9.00;99.90;;;;;;5085796;28;20291;-71
2021/05/13 02:12:40;;;;;;;14.02;9.60;;;9.10;99.90;;;;;;5101691;28;20576;-70
2021/05/13 02:15:08;;;;;;;17.98;9.48;;;9.00;99.90;;;;;;5083243;28;20646;-71
2021/05/13 02:17:34;;;;;;;18.65;11.85;;;9.10;99.90;;;;;;5100597;28;20188;-73
2021/05/13 02:19:59;;;;;;;16.30;10.52;;;9.10;99.90;;;;;;5084453;28;20578;-71
2021/05/13 02:22:25;;;;;;;18.00;10.52;;;9.00;99.90;;;;;;5101283;28;20196;-73
2021/05/13 02:24:55;;;;;;;16.85;9.88;;;9.00;99.90;;;;;;5099686;28;20675;-70
2021/05/13 02:27:20;;;;;;;14.48;10.32;;;9.00;99.90;;;;;;5100229;28;20204;-73
2021/05/13 02:29:46;;;;;;;19.67;10.57;;;9.00;99.90;;;;;;5101116;28;20463;-71
2021/05/13 02:32:11;;;;;;;18.77;10.32;;;8.90;99.90;;;;;;5096219;28;20846;-71
2021/05/13 02:34:37;;;;;;;21.13;10.95;;;8.90;99.90;;;;;;5082471;28;20203;-72
2021/05/13 02:37:03;;;;;;;17.95;10.40;;;8.90;99.90;;;;;;5099709;28;20192;-73
2021/05/13 02:39:28;;;;;;;19.75;11.68;;;8.90;99.90;;;;;;5097012;28;20310;-73
2021/05/13 02:41:54;;;;;;;26.35;12.40;;;8.90;99.90;;;;;;5084447;28;20286;-70
2021/05/13 02:44:20;;;;;;;21.52;12.45;;;9.00;99.90;;;;;;5083228;28;20200;-71
2021/05/13 02:46:45;;;;;;;22.85;13.50;;;9.00;99.90;;;;;;5099594;28;20200;-73
2021/05/13 02:49:11;;;;;;;24.30;13.80;;;9.00;99.90;;;;;;5103137;28;20198;-72
2021/05/13 02:51:37;;;;;;;21.15;13.00;;;9.10;99.90;;;;;;5082684;28;20311;-72
2021/05/13 02:54:03;;;;;;;28.38;12.77;;;9.10;99.90;;;;;;5100428;28;20697;-71
2021/05/13 02:56:28;;;;;;;25.35;12.73;;;9.10;99.90;;;;;;5098714;28;20710;-72
2021/05/13 02:58:54;;;;;;;29.85;14.80;;;9.00;99.90;;;;;;5073021;28;20681;-72
2021/05/13 03:01:27;;;;;;;20.23;13.07;;;9.00;99.90;;;;;;5098346;28;20211;-72
2021/05/13 03:03:54;;;;;;;27.92;14.48;;;8.90;99.90;;;;;;5100570;28;20242;-75
2021/05/13 03:06:21;;;;;;;20.00;12.65;;;9.00;99.90;;;;;;5083794;28;20207;-71
2021/05/13 03:08:50;;;;;;;21.65;13.23;;;8.90;99.90;;;;;;5082580;28;20228;-73
2021/05/13 03:11:16;;;;;;;18.95;12.00;;;8.90;99.90;;;;;;5084084;28;20202;-74
2021/05/13 03:13:41;;;;;;;17.48;11.93;;;8.90;99.90;;;;;;5098492;28;20179;-71
2021/05/13 03:16:07;;;;;;;20.50;13.15;;;9.00;99.90;;;;;;5100812;28;20211;-72
2021/05/13 03:18:34;;;;;;;24.13;14.60;;;9.00;99.90;;;;;;5097698;28;20474;-74
2021/05/13 03:26:54;;;;;;;18.15;12.20;;;9.20;99.90;;;;;;5099833;28;20634;-72
2021/05/13 03:29:20;;;;;;;29.50;16.10;;;9.30;99.90;;;;;;5098096;28;20196;-71
2021/05/13 03:31:46;;;;;;;19.67;12.98;;;9.40;99.90;;;;;;5081975;28;20677;-74
2021/05/13 03:34:12;;;;;;;21.20;12.98;;;9.40;99.90;;;;;;5101516;28;20278;-71
2021/05/13 03:36:37;;;;;;;32.28;15.63;;;9.50;99.90;;;;;;5101951;28;20277;-72
2021/05/13 03:39:08;;;;;;;27.98;14.73;;;9.60;99.90;;;;;;5100175;28;20195;-73
2021/05/13 03:41:34;;;;;;;22.92;13.63;;;9.70;99.90;;;;;;5094759;28;20198;-72
2021/05/13 03:44:00;;;;;;;25.08;14.80;;;9.80;99.90;;;;;;5093773;28;20226;-73
2021/05/13 03:46:26;;;;;;;22.17;14.93;;;9.80;99.90;;;;;;5100952;28;20566;-71
2021/05/13 03:48:52;;;;;;;20.73;13.25;;;9.90;99.90;;;;;;5097547;28;20228;-71
2021/05/13 03:51:17;;;;;;;17.77;12.02;;;10.00;99.90;;;;;;5084068;28;20203;-72
2021/05/13 03:53:44;;;;;;;22.20;13.40;;;10.10;99.90;;;;;;5084660;28;20193;-72
2021/05/13 03:56:11;;;;;;;17.95;12.82;;;10.20;99.90;;;;;;5084526;28;20674;-71
2021/05/13 03:58:41;;;;;;;19.13;12.77;;;10.20;99.90;;;;;;5100005;28;20190;-71
2021/05/13 04:01:30;;;;;;;17.70;11.02;;;10.30;99.90;;;;;;5081907;28;20215;-71
2021/05/13 04:03:55;;;;;;;18.85;13.20;;;10.40;99.90;;;;;;5083262;28;20327;-72
2021/05/13 04:06:21;;;;;;;20.08;11.52;;;10.40;99.90;;;;;;5099372;28;20275;-72
2021/05/13 04:08:50;;;;;;;17.50;12.05;;;10.50;99.90;;;;;;5098141;28;20200;-71
2021/05/13 04:11:17;;;;;;;20.88;12.68;;;10.50;99.90;;;;;;5074133;28;20210;-72
2021/05/13 04:13:43;;;;;;;18.45;11.57;;;10.60;99.90;;;;;;5095676;28;20199;-74
2021/05/13 04:16:09;;;;;;;17.10;12.20;;;10.60;99.90;;;;;;5097757;28;20877;-72
2021/05/13 04:18:35;;;;;;;16.95;11.15;;;10.70;99.90;;;;;;5099496;28;20568;-72
2021/05/13 04:21:01;;;;;;;25.05;11.50;;;10.70;99.90;;;;;;5084653;28;20196;-72
2021/05/13 04:23:26;;;;;;;15.68;11.25;;;10.80;99.90;;;;;;5084683;28;20217;-72
2021/05/13 04:25:52;;;;;;;20.63;12.35;;;10.90;99.90;;;;;;5076139;28;20544;-71
2021/05/13 04:28:18;;;;;;;22.42;12.13;;;10.90;99.90;;;;;;5081423;28;20673;-74
2021/05/13 04:30:43;;;;;;;22.15;13.27;;;11.00;99.90;;;;;;5080206;28;20655;-71
2021/05/13 04:33:09;;;;;;;18.30;12.43;;;11.10;99.90;;;;;;5080560;28;20204;-73
2021/05/13 04:35:35;;;;;;;19.80;12.10;;;11.20;99.90;;;;;;5081824;28;20203;-71
2021/05/13 04:38:01;;;;;;;21.70;12.63;;;11.20;99.90;;;;;;5098267;28;20191;-72
2021/05/13 04:40:27;;;;;;;20.50;12.50;;;11.40;99.90;;;;;;5078950;28;20964;-71
2021/05/13 04:42:52;;;;;;;17.42;11.82;;;11.40;99.90;;;;;;5083244;28;20201;-72
2021/05/13 04:45:18;;;;;;;24.25;11.10;;;11.60;99.90;;;;;;5097766;28;20248;-73
2021/05/13 04:50:11;;;;;;;12.65;9.25;;;11.80;99.90;;;;;;5094388;28;20215;-70
2021/05/13 04:52:38;;;;;;;13.93;8.75;;;12.00;99.90;;;;;;5079315;28;20219;-72
2021/05/13 04:55:06;;;;;;;12.75;8.68;;;12.10;99.90;;;;;;5079538;28;20767;-72
2021/05/13 04:57:32;;;;;;;15.13;8.90;;;12.30;99.90;;;;;;5082549;28;20536;-71
2021/05/13 05:00:02;;;;;;;13.30;8.18;;;12.40;99.90;;;;;;5096358;28;20199;-71
2021/05/13 05:02:28;;;;;;;12.02;8.35;;;12.40;99.90;;;;;;5105029;28;20615;-72
2021/05/13 05:04:56;;;;;;;16.58;8.13;;;12.50;99.90;;;;;;5099738;28;20258;-72
2021/05/13 05:07:22;;;;;;;13.02;7.28;;;12.50;99.90;;;;;;5104296;28;20272;-73
2021/05/13 05:09:48;;;;;;;14.63;7.10;;;12.60;99.90;;;;;;5106024;28;20239;-71
2021/05/13 05:12:14;;;;;;;14.18;6.38;;;12.60;99.90;;;;;;5104508;28;20279;-72
2021/05/13 05:14:41;;;;;;;12.15;6.25;;;12.60;99.90;;;;;;5088069;28;21704;-72
2021/05/13 05:17:08;;;;;;;9.65;6.32;;;12.60;99.90;;;;;;5107645;28;20193;-71
2021/05/13 05:19:34;;;;;;;12.75;6.53;;;12.70;99.90;;;;;;5078724;28;20310;-74
2021/05/13 05:22:00;;;;;;;8.45;5.82;;;12.80;99.90;;;;;;5103512;28;20184;-72
2021/05/13 05:24:26;;;;;;;10.65;5.72;;;12.90;99.90;;;;;;5089077;28;20199;-72
2021/05/13 05:26:51;;;;;;;13.05;5.95;;;13.10;99.90;;;;;;5088460;28;20282;-72
2021/05/13 05:29:17;;;;;;;10.98;5.88;;;13.30;99.90;;;;;;5087387;28;20199;-71
2021/05/13 05:31:43;;;;;;;13.63;5.93;;;13.60;99.90;;;;;;5104475;28;20941;-71
2021/05/13 05:34:08;;;;;;;11.10;5.18;;;13.80;99.90;;;;;;5076421;28;20298;-73
2021/05/13 05:36:34;;;;;;;10.05;5.35;;;14.10;99.90;;;;;;5103364;28;20188;-73
2021/05/13 05:39:00;;;;;;;7.20;5.30;;;14.30;99.90;;;;;;5107686;28;20556;-72
2021/05/13 05:41:26;;;;;;;10.80;5.43;;;14.50;99.90;;;;;;5105156;28;20199;-72
2021/05/13 05:43:52;;;;;;;9.73;5.63;;;14.70;99.90;;;;;;5103712;28;20188;-71
2021/05/13 05:46:18;;;;;;;8.40;5.72;;;14.60;99.90;;;;;;5101190;28;20373;-73
2021/05/13 05:48:44;;;;;;;11.68;5.78;;;14.60;99.90;;;;;;5104632;28;20274;-72
2021/05/13 05:51:09;;;;;;;6.55;4.82;;;14.60;99.90;;;;;;5107296;28;20195;-72
2021/05/13 05:53:35;;;;;;;15.93;5.65;;;14.80;99.90;;;;;;5104520;28;20325;-72
2021/05/13 05:56:01;;;;;;;12.88;5.15;;;14.90;99.90;;;;;;5100132;28;20311;-72
2021/05/13 05:58:26;;;;;;;10.45;5.60;;;15.00;99.90;;;;;;5088420;28;20275;-72
2021/05/13 06:00:52;;;;;;;9.40;5.60;;;15.00;99.90;;;;;;5086800;28;20196;-71
2021/05/13 06:03:18;;;;;;;7.53;5.30;;;15.20;99.90;;;;;;5100280;28;20223;-74
2021/05/13 06:05:43;;;;;;;8.80;5.28;;;15.10;99.90;;;;;;5104584;28;20509;-73
2021/05/13 06:08:11;;;;;;;13.77;6.22;;;15.10;99.90;;;;;;5084231;28;20202;-73
2021/05/13 06:10:36;;;;;;;11.93;5.55;;;15.30;99.90;;;;;;5086591;28;20237;-72
2021/05/13 06:13:06;;;;;;;13.52;5.55;;;15.40;99.90;;;;;;5080125;28;20693;-72
2021/05/13 06:15:32;;;;;;;13.02;5.70;;;15.60;99.90;;;;;;5104307;28;20279;-71
2021/05/13 06:17:58;;;;;;;8.75;5.78;;;15.70;99.90;;;;;;5107895;28;20267;-74
2021/05/13 06:20:26;;;;;;;8.75;5.78;;;16.00;99.90;;;;;;5101677;28;20202;-72
2021/05/13 06:22:53;;;;;;;15.00;5.75;;;16.20;99.90;;;;;;5101072;28;20337;-73
2021/05/13 06:25:20;;;;;;;14.63;5.70;;;16.10;99.90;;;;;;5102096;28;20748;-73
2021/05/13 06:27:46;;;;;;;16.27;5.68;;;16.20;99.90;;;;;;5095478;28;20196;-74
2021/05/13 06:30:16;;;;;;;8.43;5.50;;;16.40;99.90;;;;;;5094633;28;20286;-73
2021/05/13 06:32:46;;;;;;;14.27;5.68;;;16.50;99.90;;;;;;5083071;28;20346;-73
2021/05/13 06:35:13;;;;;;;10.38;5.75;;;16.60;99.90;;;;;;5097159;28;20258;-71
2021/05/13 06:37:39;;;;;;;10.38;4.72;;;16.80;99.90;;;;;;5082559;28;20215;-72
2021/05/13 06:40:07;;;;;;;10.07;4.72;;;16.90;99.90;;;;;;5081609;28;20195;-75
2021/05/13 06:42:33;;;;;;;9.82;5.20;;;16.90;99.90;;;;;;5097186;28;20200;-75
2021/05/13 06:44:58;;;;;;;9.52;4.85;;;16.90;99.90;;;;;;5081553;28;20268;-74
2021/05/13 06:47:24;;;;;;;7.68;5.32;;;17.10;99.90;;;;;;5101272;28;20196;-73
2021/05/13 06:49:50;;;;;;;7.90;5.30;;;17.10;99.90;;;;;;5099220;28;20200;-72
2021/05/13 06:52:16;;;;;;;11.23;5.40;;;17.10;99.90;;;;;;5101553;28;20218;-73
2021/05/13 06:54:43;;;;;;;10.90;5.80;;;17.10;99.90;;;;;;5081226;28;20226;-72
2021/05/13 06:57:09;;;;;;;10.20;5.40;;;17.20;99.90;;;;;;5099827;28;20195;-75
2021/05/13 06:59:36;;;;;;;11.77;5.57;;;17.20;99.90;;;;;;5103149;28;20676;-72
2021/05/13 07:02:02;;;;;;;8.80;5.50;;;17.40;99.90;;;;;;5083425;28;20191;-73
2021/05/13 07:04:28;;;;;;;9.95;5.47;;;17.50;99.90;;;;;;5083446;28;20263;-71
2021/05/13 07:06:53;;;;;;;11.30;5.10;;;17.60;99.90;;;;;;5104150;28;20192;-75
2021/05/13 07:09:19;;;;;;;8.52;5.10;;;17.90;99.90;;;;;;5101243;28;20237;-73
2021/05/13 07:11:45;;;;;;;7.25;5.18;;;17.90;99.90;;;;;;5087083;28;20307;-73
2021/05/13 07:14:11;;;;;;;11.48;5.00;;;17.90;99.90;;;;;;5094832;28;20200;-75
2021/05/13 07:16:37;;;;;;;13.80;4.88;;;18.10;99.90;;;;;;5073673;28;20187;-72
2021/05/13 07:19:04;;;;;;;10.77;4.80;;;18.30;99.90;;;;;;5097672;28;20678;-71
2021/05/13 07:21:30;;;;;;;9.15;4.60;;;18.50;99.90;;;;;;5096045;28;20266;-71
2021/05/13 07:23:55;;;;;;;13.55;4.80;;;18.50;99.90;;;;;;5098220;28;20294;-73
2021/05/13 07:26:22;;;;;;;9.45;4.88;;;18.80;99.90;;;;;;5100258;28;20507;-72
2021/05/13 07:28:48;;;;;;;12.68;4.88;;;19.10;99.90;;;;;;5081979;28;20539;-72
2021/05/13 07:31:14;;;;;;;7.53;4.80;;;19.20;99.90;;;;;;5078480;28;20260;-74
2021/05/13 07:33:40;;;;;;;10.93;5.10;;;19.20;99.90;;;;;;5095840;28;20195;-72
2021/05/13 07:36:06;;;;;;;11.20;4.93;;;19.10;99.90;;;;;;5077287;28;20686;-72
2021/05/13 07:38:33;;;;;;;11.63;4.47;;;18.90;99.90;;;;;;5095498;28;20322;-73
2021/05/13 07:40:59;;;;;;;8.13;4.70;;;19.00;99.90;;;;;;5077610;28;20200;-73
2021/05/13 07:43:26;;;;;;;8.18;4.53;;;19.20;99.90;;;;;;5097833;28;20257;-72
2021/05/13 07:45:52;;;;;;;11.15;4.22;;;19.40;99.90;;;;;;5080091;28;20233;-72
2021/05/13 07:48:18;;;;;;;8.65;4.70;;;19.50;99.90;;;;;;5094376;28;20547;-73
2021/05/13 07:50:45;;;;;;;8.50;4.35;;;19.80;99.90;;;;;;5076312;28;20196;-75
2021/05/13 07:53:11;;;;;;;6.68;4.22;;;19.90;99.90;;;;;;5075695;28;20227;-74
2021/05/13 07:55:37;;;;;;;8.00;4.50;;;20.00;99.90;;;;;;5096761;28;20246;-72
2021/05/13 07:58:03;;;;;;;7.28;4.45;;;20.20;99.90;;;;;;5079318;28;20211;-73
2021/05/13 08:00:29;;;;;;;10.73;4.18;;;20.40;99.90;;;;;;5078871;28;20645;-73
2021/05/13 08:02:55;;;;;;;12.00;4.60;;;20.80;99.90;;;;;;5095093;28;20207;-74
2021/05/13 08:05:21;;;;;;;9.10;4.97;;;21.00;99.90;;;;;;5079558;28;20347;-73
2021/05/13 08:07:47;;;;;;;10.77;4.68;;;20.90;99.90;;;;;;5083858;28;20543;-73
2021/05/13 08:10:12;;;;;;;11.15;4.70;;;20.80;99.90;;;;;;5097503;28;20222;-74
2021/05/13 08:12:40;;;;;;;7.55;4.60;;;20.90;99.90;;;;;;5081688;28;20207;-73
2021/05/13 08:15:12;;;;;;;9.32;4.38;;;21.10;99.90;;;;;;5094109;28;20219;-73
2021/05/13 08:17:39;;;;;;;8.88;4.40;;;21.50;99.90;;;;;;5093789;28;20240;-73
2021/05/13 08:20:06;;;;;;;10.57;5.30;;;21.80;99.90;;;;;;5077840;28;20202;-73
2021/05/13 08:22:32;;;;;;;6.57;4.70;;;21.80;99.90;;;;;;5100643;28;20214;-73
2021/05/13 08:24:57;;;;;;;8.88;4.65;;;21.60;99.90;;;;;;5072243;28;20549;-74
2021/05/13 08:27:23;;;;;;;11.35;4.70;;;21.70;99.90;;;;;;5094599;28;20200;-73
2021/05/13 08:29:49;;;;;;;8.40;4.93;;;22.10;99.90;;;;;;5094480;28;20195;-73
2021/05/13 08:32:15;;;;;;;13.15;4.75;;;22.10;99.90;;;;;;5100784;28;20244;-72
2021/05/13 08:34:40;;;;;;;13.40;4.88;;;22.30;99.90;;;;;;5097246;28;20211;-72
2021/05/13 08:37:07;;;;;;;9.38;4.32;;;22.40;99.90;;;;;;5092029;28;20681;-70
2021/05/13 08:39:32;;;;;;;7.85;4.20;;;22.50;99.90;;;;;;5096925;28;20287;-73
2021/05/13 08:42:00;;;;;;;9.18;4.18;;;23.00;99.90;;;;;;5092941;28;20271;-72
2021/05/13 08:44:28;;;;;;;10.98;4.35;;;23.40;99.90;;;;;;5078692;28;20208;-71
2021/05/13 08:46:56;;;;;;;9.95;4.70;;;23.70;99.90;;;;;;5103081;28;20196;-72
2021/05/13 08:49:25;;;;;;;8.07;4.45;;;24.10;99.90;;;;;;5078918;28;20585;-72
2021/05/13 08:51:51;;;;;;;6.47;4.43;;;24.00;99.90;;;;;;5095765;28;20191;-72
2021/05/13 08:54:18;;;;;;;6.20;3.70;;;23.80;99.90;;;;;;5081348;28;20829;-74
2021/05/13 08:56:44;;;;;;;9.63;4.18;;;24.00;99.90;;;;;;5079003;28;20293;-71
2021/05/13 08:59:09;;;;;;;7.88;4.00;;;24.10;99.90;;;;;;5084694;28;20313;-73
2021/05/13 09:01:37;;;;;;;16.58;4.32;;;24.10;99.90;;;;;;5099086;28;20199;-72
2021/05/13 09:04:03;;;;;;;5.65;4.00;;;24.30;99.90;;;;;;5094354;28;20219;-73
2021/05/13 09:06:41;;;;;;;6.13;4.00;;;24.50;99.90;;;;;;5092417;28;20207;-72
2021/05/13 09:09:11;;;;;;;12.15;4.43;;;24.80;98.10;;;;;;5095162;28;20191;-72
2021/05/13 09:11:57;;;;;;;9.10;4.07;;;24.60;99.60;;;;;;5080692;28;20192;-72
2021/05/13 09:14:31;;;;;;;10.52;4.13;;;24.70;99.60;;;;;;5099759;28;20216;-72
2021/05/13 09:17:00;;;;;;;8.20;3.50;;;24.60;96.60;;;;;;5075799;28;20269;-72
2021/05/13 09:19:31;;;;;;;8.68;3.90;;;24.50;98.00;;;;;;5079553;28;20188;-73
2021/05/13 09:22:04;;;;;;;16.95;3.83;;;24.70;95.60;;;;;;5076136;28;20299;-73
2021/05/13 09:24:48;;;;;;;8.90;3.88;;;24.90;95.80;;;;;;5066826;28;20215;-72
2021/05/13 09:27:18;;;;;;;7.88;3.83;;;24.80;94.30;;;;;;5072419;28;20199;-73
2021/05/13 09:29:45;;;;;;;8.93;3.80;;;24.80;95.40;;;;;;5092209;28;20856;-74
2021/05/13 09:32:21;;;;;;;10.40;3.80;;;24.90;94.20;;;;;;5091737;28;20238;-73
2021/05/13 09:34:47;;;;;;;7.82;3.67;;;24.90;93.40;;;;;;5089806;28;20238;-72
2021/05/13 09:37:14;;;;;;;5.40;3.42;;;24.80;95.50;;;;;;5069865;28;20196;-73
2021/05/13 09:39:50;;;;;;;8.18;3.70;;;25.10;94.40;;;;;;5094003;28;20299;-73
2021/05/13 09:42:18;;;;;;;7.10;3.90;;;25.60;93.90;;;;;;5093061;28;20206;-73
2021/05/13 09:44:46;;;;;;;6.88;3.63;;;26.10;94.20;;;;;;5087807;28;20287;-74
2021/05/13 09:47:19;;;;;;;8.77;3.40;;;26.50;90.40;;;;;;5090083;28;20707;-72
2021/05/13 09:50:05;;;;;;;6.82;3.83;;;26.60;91.40;;;;;;5075667;28;20590;-72
2021/05/13 09:52:59;;;;;;;10.63;3.30;;;27.00;90.70;;;;;;5094677;28;20938;-72
2021/05/13 09:55:35;;;;;;;5.50;3.58;;;27.00;84.40;;;;;;5096076;28;20267;-72
2021/05/13 09:58:05;;;;;;;9.32;3.97;;;26.50;86.00;;;;;;5080763;28;20241;-72
2021/05/13 10:00:43;;;;;;;8.25;4.03;;;25.80;85.80;;;;;;5078056;28;20195;-71
2021/05/13 10:03:12;;;;;;;5.55;3.35;;;25.10;85.70;;;;;;5095650;28;20194;-73
2021/05/13 10:05:40;;;;;;;12.10;3.85;;;25.30;90.10;;;;;;5095584;28;20707;-71
2021/05/13 10:08:06;;;;;;;12.25;3.50;;;25.40;90.70;;;;;;5079147;28;20207;-71
2021/05/13 10:10:32;;;;;;;6.00;3.40;;;25.30;89.50;;;;;;5101108;28;20199;-72
2021/05/13 10:12:59;;;;;;;8.35;3.50;;;25.60;90.40;;;;;;5103453;28;20640;-71
2021/05/13 10:15:26;;;;;;;8.63;3.53;;;25.70;90.50;;;;;;5081944;28;20235;-73
2021/05/13 10:17:56;;;;;;;12.80;3.83;;;25.80;87.70;;;;;;5097295;28;20222;-72
2021/05/13 10:20:24;;;;;;;5.22;3.17;;;25.60;89.50;;;;;;5097926;28;20665;-71
2021/05/13 10:22:50;;;;;;;12.45;3.47;;;25.40;84.90;;;;;;5094495;28;20602;-71
2021/05/13 10:25:27;;;;;;;6.75;3.55;;;25.10;86.70;;;;;;5094686;28;20226;-71
2021/05/13 10:27:58;;;;;;;6.50;3.60;;;24.90;87.00;;;;;;5076443;28;20207;-72
2021/05/13 10:30:35;;;;;;;7.50;3.45;;;24.90;87.70;;;;;;5079164;28;20325;-73
2021/05/13 10:33:09;;;;;;;5.93;3.38;;;25.20;88.30;;;;;;5102192;28;20211;-73
2021/05/13 10:35:36;;;;;;;8.70;3.47;;;25.60;90.70;;;;;;5096974;28;20233;-72
2021/05/13 10:38:13;;;;;;;9.48;4.10;;;25.90;90.70;;;;;;5099546;28;20241;-73
2021/05/13 10:41:03;;;;;;;10.43;3.55;;;26.20;83.90;;;;;;5078366;28;20325;-73
2021/05/13 10:43:29;;;;;;;6.07;3.63;;;26.20;85.90;;;;;;5076944;28;20702;-72
2021/05/13 10:45:56;;;;;;;8.77;4.10;;;26.10;86.10;;;;;;5095902;28;20683;-72
2021/05/13 10:48:40;;;;;;;8.25;3.92;;;26.10;86.10;;;;;;5097332;28;20325;-71
2021/05/13 10:51:08;;;;;;;9.18;3.88;;;26.50;89.60;;;;;;5099051;28;20273;-72
2021/05/13 10:53:45;;;;;;;9.93;3.75;;;26.90;86.50;;;;;;5101114;28;20292;-73
2021/05/13 10:56:27;;;;;;;5.35;3.47;;;27.50;79.30;;;;;;5100974;28;20199;-72
2021/05/13 10:59:05;;;;;;;12.38;3.90;;;27.80;75.70;;;;;;5103519;28;20736;-73
2021/05/13 11:01:51;;;;;;;9.05;3.38;;;27.80;83.60;;;;;;5093048;28;20194;-72
2021/05/13 11:04:37;;;;;;;9.18;3.47;;;28.30;78.50;;;;;;5097828;28;20241;-72
2021/05/13 11:07:12;;;;;;;8.18;3.80;;;28.70;78.20;;;;;;5102012;28;20218;-73
2021/05/13 11:09:47;;;;;;;14.18;4.82;;;28.90;76.20;;;;;;5091234;28;20731;-72
2021/05/13 11:12:26;;;;;;;8.43;3.70;;;29.00;75.40;;;;;;5090598;28;20221;-72
2021/05/13 11:18:03;;;;;;;8.93;3.47;;;28.00;75.20;;;;;;5071883;28;20195;-73
2021/05/13 11:20:48;;;;;;;12.13;3.42;;;28.40;77.20;;;;;;5076418;28;20198;-72
2021/05/13 11:23:17;;;;;;;6.35;3.10;;;28.70;73.70;;;;;;5082197;28;20190;-71
2021/05/13 11:25:45;;;;;;;7.35;3.28;;;29.10;71.30;;;;;;5079123;28;20235;-71
2021/05/13 11:28:40;;;;;;;8.25;3.30;;;28.70;75.00;;;;;;5094443;28;20942;-71
2021/05/13 11:31:08;;;;;;;7.53;3.42;;;28.30;72.80;;;;;;5090422;28;20290;-73
2021/05/13 11:33:45;;;;;;;6.20;3.28;;;28.20;76.00;;;;;;5091856;28;20208;-73
2021/05/13 11:36:16;;;;;;;15.48;3.00;;;28.40;73.30;;;;;;5096869;28;20199;-72
2021/05/13 11:38:44;;;;;;;9.00;2.90;;;29.00;73.90;;;;;;5095116;28;20317;-73
2021/05/13 11:41:10;;;;;;;10.60;3.28;;;29.10;72.00;;;;;;5097969;28;20195;-72
2021/05/13 11:43:39;;;;;;;6.25;2.90;;;29.30;68.90;;;;;;5096905;28;20690;-71
2021/05/13 11:46:07;;;;;;;7.82;3.40;;;29.70;74.10;;;;;;5093449;28;20201;-72
2021/05/13 11:48:34;;;;;;;12.18;3.60;;;29.90;68.20;;;;;;5096501;28;20283;-73
2021/05/13 11:51:11;;;;;;;10.70;3.33;;;30.10;66.70;;;;;;5097888;28;20270;-73
2021/05/13 11:53:38;;;;;;;10.50;3.45;;;29.80;67.80;;;;;;5100845;28;20187;-71
2021/05/13 11:56:05;;;;;;;7.43;3.53;;;29.40;64.40;;;;;;5080815;28;20746;-72
2021/05/13 11:58:39;;;;;;;9.13;3.85;;;29.70;68.80;;;;;;5095634;28;20191;-73
2021/05/13 12:01:35;;;;;;;6.35;3.88;;;29.60;69.00;;;;;;5099161;28;20195;-72
2021/05/13 12:04:10;;;;;;;7.53;3.95;;;29.60;67.60;;;;;;5098901;28;20226;-71
2021/05/13 12:06:45;;;;;;;7.28;4.20;;;29.60;71.20;;;;;;5081740;28;20258;-72
2021/05/13 12:09:13;;;;;;;10.77;3.88;;;30.00;63.70;;;;;;5081580;28;20190;-71
2021/05/13 12:11:38;;;;;;;12.32;5.03;;;29.90;67.70;;;;;;5103038;28;20200;-71
2021/05/13 12:14:26;;;;;;;7.30;3.80;;;29.80;67.00;;;;;;5103745;28;20197;-73
2021/05/13 12:17:03;;;;;;;7.70;3.58;;;30.00;65.90;;;;;;5099631;28;20289;-71
2021/05/13 12:19:32;;;;;;;11.15;4.40;;;30.20;64.50;;;;;;5080309;28;20197;-72
2021/05/13 12:22:10;;;;;;;10.73;4.75;;;30.20;66.30;;;;;;5079510;28;20289;-72
2021/05/13 12:24:40;;;;;;;8.60;4.18;;;29.60;62.80;;;;;;5094069;28;20499;-72
2021/05/13 12:27:05;;;;;;;8.77;4.30;;;29.20;69.30;;;;;;5097012;28;20298;-72
2021/05/13 12:29:33;;;;;;;9.80;4.22;;;29.00;66.30;;;;;;5106397;28;20281;-72
2021/05/13 12:31:59;;;;;;;10.95;4.53;;;29.40;71.90;;;;;;5103594;28;20234;-73
2021/05/13 12:34:42;;;;;;;14.65;4.72;;;29.40;64.80;;;;;;5094264;28;20309;-72
2021/05/13 12:37:09;;;;;;;14.93;5.63;;;29.30;67.30;;;;;;5097883;28;20199;-72
2021/05/13 12:39:36;;;;;;;12.07;5.57;;;29.30;65.60;;;;;;5095164;28;20213;-72
2021/05/13 12:42:02;;;;;;;8.85;5.68;;;28.70;63.50;;;;;;5083586;28;20290;-72
2021/05/13 12:44:32;;;;;;;14.00;6.35;;;28.40;66.90;;;;;;5098096;28;20210;-72
2021/05/13 12:47:03;;;;;;;12.40;6.18;;;28.20;65.70;;;;;;5094464;28;20575;-72
2021/05/13 12:49:30;;;;;;;10.23;6.10;;;27.70;64.60;;;;;;5094865;28;20244;-71
2021/05/13 12:52:06;;;;;;;9.60;5.70;;;27.20;66.80;;;;;;5096338;28;20200;-71
2021/05/13 12:54:40;;;;;;;12.30;5.93;;;26.90;68.00;;;;;;5095715;28;20194;-71
2021/05/13 12:57:16;;;;;;;16.73;6.47;;;26.60;70.20;;;;;;5102632;28;20289;-72
2021/05/13 12:59:54;;;;;;;10.02;6.00;;;26.70;70.80;;;;;;5099425;28;20695;-72
2021/05/13 13:02:25;;;;;;;11.73;5.80;;;26.60;71.10;;;;;;5101142;28;20186;-72